MGGT/GUA METAR and TAF weather

Enter ICAO airport designator
Station Type Date Time Source
MGGT METAR 2020/01/24 21:00 UTC NOAA

MGGT 242100Z 18004KT 8000 SCT022 24/14 Q1023 A3021 HZ


Station Type Date Time Source
MGGT Decoded METAR 2020/01/24 21:00 UTC NOAA

Guatemala Aeropuertola Aurora , Guatemala (MGGT) 14-35N 090-31W 1489M
Jan 24, 2020 - 04:00 PM EST / 2020.01.24 2100 UTC
Wind: from the S (180 degrees) at 5 MPH (4 KT):0
Visibility: 4 mile(s):0
Sky conditions: partly cloudy
Temperature: 75 F (24 C)
Dew Point: 57 F (14 C)
Relative Humidity: 53%
Pressure (altimeter): 30.21 in. Hg (1023 hPa)
ob: MGGT 242100Z 18004KT 8000 SCT022 24/14 Q1023 A3021 HZ
cycle: 21

Station Type Date Time Source
MGGT TAF 2020/01/24 18:21 UTC NOAA

TAF TAF MGGT 241700Z 2418/2518 03008KT 9999 SCT018 TX26/2420Z TN14/2512Z PROB30
TEMPO 2418/2500 18008KT 8000 VCSH BKN018
BECMG 2500/2502 36010KT FEW016 PROB30
TEMPO 2502/2510 36014KT SCT014
TEMPO 2510/2516 VRB03KT 4000 BR SCT008
BECMG 2516/2518 18008KT FEW018

Example: see airport list